Kingman, Indiana
Current Conditions -  °F | °C
As of 11:15 AM on Thursday 29 Jan 2015 (Local Time) from KDNV Reporting Station
Haze Haze  
Wind Chill: 23°   Ceiling: 1300
Heat Index: 34°   Visibility: 3mi
Dew Point: 31°   Wind: 20mph
Humidity: 90%   Direction: 300°WNW
Pressure: 29.88"   Gusts: 29mph
Location:  39.97°N, 87.28°W
Report Text: KDNV 291615Z AUTO 30017G25KT 3SM BR OVC013 01/00 A2988 RMK AO2 T00121003
Loading
Personal Weather Stations






























Interactive Weather Map New forecast layout! Learn more

10-Day Weather Forecast

Advertisements
Track Severe Weather on mobile